Time;durP1;ratioP1;P1;durP2;ratioP2;P2;SDS_P1;SDS_P2;PMS_P1;PMS_P2;Temp;Humidity;BMP_temperature;BMP_pressure;BME280_temperature;BME280_humidity;BME280_pressure;Samples;Min_cycle;Max_cycle;Signal;HPM_P1;HPM_P2
2023/08/17 00:01:16;;;;;;;30.23;16.50;;;;;;;;;;4969261;28;20043;-65
2023/08/17 00:03:43;;;;;;;27.35;15.32;;;;;;;;;;4968113;28;20116;-64
2023/08/17 00:06:09;;;;;;;23.15;14.93;;;;;;;;;;4967626;28;20112;-64
2023/08/17 00:08:36;;;;;;;22.92;15.38;;;;;;;;;;4982313;28;20041;-65
2023/08/17 00:11:02;;;;;;;25.20;15.23;;;;;;;;;;4968042;28;20128;-64
2023/08/17 00:13:29;;;;;;;27.55;15.32;;;;;;;;;;4968501;28;20100;-64
2023/08/17 00:15:56;;;;;;;23.23;14.95;;;;;;;;;;4966516;28;20602;-65
2023/08/17 00:18:22;;;;;;;22.83;15.68;;;;;;;;;;4968331;28;20081;-66
2023/08/17 00:20:49;;;;;;;21.00;14.30;;;;;;;;;;4969782;28;20515;-63
2023/08/17 00:23:15;;;;;;;24.02;14.02;;;;;;;;;;4969541;28;20050;-65
2023/08/17 00:25:42;;;;;;;22.17;14.35;;;;;;;;;;4983014;28;20057;-61
2023/08/17 00:28:08;;;;;;;25.83;14.20;;;;;;;;;;4968946;28;21085;-63
2023/08/17 00:30:37;;;;;;;21.80;13.43;;;;;;;;;;4969207;28;20034;-62
2023/08/17 00:33:04;;;;;;;20.65;12.55;;;;;;;;;;4983485;28;20045;-60
2023/08/17 00:35:30;;;;;;;20.02;12.68;;;;;;;;;;4986932;28;20058;-61
2023/08/17 00:37:57;;;;;;;24.05;13.18;;;;;;;;;;4987333;28;20042;-61
2023/08/17 00:40:24;;;;;;;21.55;12.65;;;;;;;;;;4988536;28;20046;-62
2023/08/17 00:42:51;;;;;;;20.10;13.20;;;;;;;;;;4987196;28;20038;-64
2023/08/17 00:45:18;;;;;;;25.05;12.68;;;;;;;;;;4989588;28;20052;-64
2023/08/17 00:47:45;;;;;;;18.33;12.32;;;;;;;;;;4987731;28;20046;-64
2023/08/17 00:50:12;;;;;;;27.00;12.13;;;;;;;;;;5003226;28;20153;-63
2023/08/17 00:52:39;;;;;;;18.75;12.43;;;;;;;;;;4987424;28;20073;-64
2023/08/17 00:55:06;;;;;;;20.08;13.15;;;;;;;;;;5003622;28;20038;-65
2023/08/17 00:57:34;;;;;;;23.90;13.45;;;;;;;;;;5000246;28;20124;-64
2023/08/17 01:00:00;;;;;;;21.48;12.77;;;;;;;;;;4988537;28;20049;-64
2023/08/17 01:02:27;;;;;;;21.67;11.70;;;;;;;;;;4987661;28;20034;-64
2023/08/17 01:04:54;;;;;;;19.58;11.45;;;;;;;;;;4987195;28;20410;-64
2023/08/17 01:07:20;;;;;;;22.80;12.82;;;;;;;;;;4985837;28;20065;-64
2023/08/17 01:09:47;;;;;;;18.00;12.25;;;;;;;;;;4987144;28;20049;-64
2023/08/17 01:12:19;;;;;;;18.25;11.80;;;;;;;;;;4987973;28;20768;-64
2023/08/17 01:14:49;;;;;;;21.75;11.88;;;;;;;;;;4987753;28;20644;-63
2023/08/17 01:17:38;;;;;;;18.90;11.20;;;;;;;;;;4987376;28;20117;-64
2023/08/17 01:20:06;;;;;;;20.95;12.25;;;;;;;;;;4988074;28;20588;-63
2023/08/17 01:22:33;;;;;;;19.85;11.10;;;;;;;;;;4985927;28;20121;-66
2023/08/17 01:24:59;;;;;;;18.65;10.63;;;;;;;;;;4988733;28;20045;-64
2023/08/17 01:27:27;;;;;;;19.98;11.05;;;;;;;;;;4985177;28;20133;-64
2023/08/17 01:29:55;;;;;;;16.40;9.85;;;;;;;;;;5001019;28;20532;-64
2023/08/17 01:32:27;;;;;;;16.75;9.95;;;;;;;;;;5000621;28;20038;-64
2023/08/17 01:35:09;;;;;;;15.05;9.98;;;;;;;;;;4986891;28;20046;-67
2023/08/17 01:37:39;;;;;;;17.97;10.40;;;;;;;;;;4985523;28;20137;-65
2023/08/17 01:40:07;;;;;;;16.67;9.88;;;;;;;;;;4987627;28;20046;-65
2023/08/17 01:42:34;;;;;;;15.90;9.73;;;;;;;;;;4987203;28;20495;-63
2023/08/17 01:45:00;;;;;;;14.32;9.52;;;;;;;;;;4988395;28;20046;-65
2023/08/17 01:47:27;;;;;;;15.90;10.10;;;;;;;;;;4987459;28;20048;-64
2023/08/17 01:49:53;;;;;;;20.55;10.18;;;;;;;;;;4988606;28;20045;-63
2023/08/17 01:52:20;;;;;;;17.95;9.90;;;;;;;;;;4988544;28;20042;-64
2023/08/17 01:54:46;;;;;;;14.77;8.73;;;;;;;;;;4987063;28;20039;-64
2023/08/17 01:57:13;;;;;;;18.58;9.93;;;;;;;;;;4987142;28;20466;-65
2023/08/17 01:59:40;;;;;;;18.08;10.45;;;;;;;;;;4985268;28;20141;-64
2023/08/17 02:02:08;;;;;;;16.85;9.35;;;;;;;;;;4985313;28;20050;-67
2023/08/17 02:04:34;;;;;;;14.95;9.93;;;;;;;;;;4983620;28;20572;-65
2023/08/17 02:07:01;;;;;;;15.90;9.80;;;;;;;;;;4985697;28;20046;-66
2023/08/17 02:09:28;;;;;;;14.95;9.35;;;;;;;;;;5000718;28;20037;-62
2023/08/17 02:11:54;;;;;;;17.33;8.88;;;;;;;;;;4985814;28;20042;-62
2023/08/17 02:14:21;;;;;;;18.95;10.07;;;;;;;;;;4988356;28;20052;-60
2023/08/17 02:16:47;;;;;;;14.82;9.52;;;;;;;;;;4986592;28;20145;-62
2023/08/17 02:19:14;;;;;;;18.38;9.60;;;;;;;;;;4988483;28;20505;-62
2023/08/17 02:21:41;;;;;;;20.88;10.20;;;;;;;;;;4987141;28;21525;-60
2023/08/17 02:24:07;;;;;;;17.88;10.30;;;;;;;;;;4987476;28;20037;-63
2023/08/17 02:26:34;;;;;;;17.40;9.80;;;;;;;;;;4984702;28;20520;-63
2023/08/17 02:29:00;;;;;;;16.15;10.10;;;;;;;;;;4987126;28;20037;-62
2023/08/17 02:31:27;;;;;;;17.92;10.30;;;;;;;;;;4986145;28;20056;-60
2023/08/17 02:33:58;;;;;;;18.45;10.20;;;;;;;;;;4986632;28;20427;-62
2023/08/17 02:36:24;;;;;;;17.83;9.88;;;;;;;;;;4985021;28;20388;-61
2023/08/17 02:38:51;;;;;;;23.42;10.93;;;;;;;;;;4986081;28;20074;-62
2023/08/17 02:41:17;;;;;;;19.80;10.15;;;;;;;;;;4985824;28;21056;-63
2023/08/17 02:43:44;;;;;;;18.70;9.93;;;;;;;;;;4984612;28;20046;-61
2023/08/17 02:46:10;;;;;;;16.52;9.82;;;;;;;;;;4983965;28;20080;-60
2023/08/17 02:48:37;;;;;;;14.50;9.93;;;;;;;;;;4984948;28;20057;-62
2023/08/17 02:51:04;;;;;;;21.05;9.88;;;;;;;;;;4985719;28;20053;-62
2023/08/17 02:53:30;;;;;;;21.73;10.55;;;;;;;;;;4984840;28;20663;-64
2023/08/17 02:55:57;;;;;;;17.30;9.85;;;;;;;;;;4987151;28;20045;-61
2023/08/17 02:58:24;;;;;;;18.92;10.00;;;;;;;;;;4999698;28;20038;-61
2023/08/17 03:01:10;;;;;;;22.42;9.48;;;;;;;;;;5000630;28;20073;-61
2023/08/17 03:03:36;;;;;;;19.73;10.38;;;;;;;;;;5002122;28;20052;-61
2023/08/17 03:06:03;;;;;;;18.35;10.02;;;;;;;;;;4981149;28;20053;-60
2023/08/17 03:08:30;;;;;;;20.35;10.35;;;;;;;;;;5001579;28;20540;-60
2023/08/17 03:10:57;;;;;;;22.75;10.52;;;;;;;;;;5003658;28;20100;-62
2023/08/17 03:13:23;;;;;;;21.63;11.38;;;;;;;;;;5005976;28;20042;-61
2023/08/17 03:15:50;;;;;;;19.40;10.07;;;;;;;;;;5006408;28;20041;-61
2023/08/17 03:18:16;;;;;;;22.73;10.35;;;;;;;;;;5007317;28;20049;-62
2023/08/17 03:20:45;;;;;;;24.17;10.88;;;;;;;;;;5005610;28;20158;-58
2023/08/17 03:23:12;;;;;;;20.98;11.25;;;;;;;;;;5005443;28;20045;-65
2023/08/17 03:25:39;;;;;;;20.48;11.02;;;;;;;;;;5004830;28;20770;-60
2023/08/17 03:28:05;;;;;;;23.42;12.25;;;;;;;;;;4983798;28;20052;-62
2023/08/17 03:30:32;;;;;;;23.40;11.85;;;;;;;;;;5003346;28;20473;-61
2023/08/17 03:32:59;;;;;;;23.25;12.43;;;;;;;;;;5005338;28;20139;-59
2023/08/17 03:35:25;;;;;;;30.83;11.95;;;;;;;;;;5004110;28;20096;-63
2023/08/17 03:37:52;;;;;;;20.85;11.38;;;;;;;;;;5000069;28;20034;-63
2023/08/17 03:40:19;;;;;;;20.73;10.65;;;;;;;;;;4970658;28;20046;-63
2023/08/17 03:42:45;;;;;;;21.63;10.52;;;;;;;;;;4970917;28;20050;-59
2023/08/17 03:45:12;;;;;;;18.98;10.68;;;;;;;;;;4969458;28;20567;-63
2023/08/17 03:47:39;;;;;;;16.23;10.13;;;;;;;;;;4982876;28;20070;-60
2023/08/17 03:50:06;;;;;;;20.95;11.52;;;;;;;;;;4970200;28;20038;-60
2023/08/17 03:52:33;;;;;;;21.17;10.98;;;;;;;;;;4968896;28;20693;-61
2023/08/17 03:54:59;;;;;;;19.50;10.27;;;;;;;;;;4970877;28;20663;-60
2023/08/17 03:57:26;;;;;;;21.17;10.55;;;;;;;;;;4969029;28;20133;-61
2023/08/17 03:59:53;;;;;;;16.73;10.75;;;;;;;;;;4969766;28;20049;-57
2023/08/17 04:02:19;;;;;;;24.15;10.93;;;;;;;;;;4969795;28;20042;-63
2023/08/17 04:04:46;;;;;;;19.35;11.38;;;;;;;;;;4968395;28;20078;-63
2023/08/17 04:07:12;;;;;;;21.80;11.20;;;;;;;;;;4967434;28;20157;-64
2023/08/17 04:09:39;;;;;;;31.38;11.07;;;;;;;;;;4966754;28;20615;-63
2023/08/17 04:12:06;;;;;;;22.75;11.02;;;;;;;;;;4969277;28;20162;-63
2023/08/17 04:14:32;;;;;;;19.88;10.52;;;;;;;;;;4969021;28;20065;-63
2023/08/17 04:16:59;;;;;;;23.55;11.27;;;;;;;;;;4969714;28;20060;-64
2023/08/17 04:19:25;;;;;;;24.63;11.05;;;;;;;;;;4984337;28;20077;-64
2023/08/17 04:21:52;;;;;;;19.92;10.27;;;;;;;;;;4968628;28;20046;-62
2023/08/17 04:24:19;;;;;;;17.42;10.43;;;;;;;;;;4970668;28;20663;-64
2023/08/17 04:26:45;;;;;;;23.83;11.50;;;;;;;;;;4967597;28;20133;-63
2023/08/17 04:29:12;;;;;;;20.25;10.30;;;;;;;;;;4969339;28;20046;-63
2023/08/17 04:31:38;;;;;;;19.23;10.45;;;;;;;;;;4982275;28;20517;-63
2023/08/17 04:34:05;;;;;;;20.77;9.85;;;;;;;;;;4991188;28;20058;-64
2023/08/17 04:36:32;;;;;;;20.13;9.57;;;;;;;;;;4987453;28;20109;-64
2023/08/17 04:38:59;;;;;;;19.95;9.95;;;;;;;;;;5004074;28;20578;-63
2023/08/17 04:41:25;;;;;;;20.50;10.05;;;;;;;;;;4986974;28;20122;-63
2023/08/17 04:43:52;;;;;;;24.85;10.65;;;;;;;;;;4988013;28;20410;-63
2023/08/17 04:46:19;;;;;;;17.67;9.77;;;;;;;;;;4988188;28;20057;-63
2023/08/17 04:48:45;;;;;;;20.48;9.82;;;;;;;;;;4987715;28;20045;-64
2023/08/17 04:51:12;;;;;;;19.55;9.88;;;;;;;;;;5004407;28;20045;-62
2023/08/17 04:53:38;;;;;;;21.15;9.82;;;;;;;;;;4987690;28;20573;-63
2023/08/17 04:56:05;;;;;;;18.65;10.40;;;;;;;;;;4987887;28;20057;-64
2023/08/17 04:58:32;;;;;;;15.95;9.35;;;;;;;;;;4988092;28;20390;-63
2023/08/17 05:01:00;;;;;;;21.38;9.77;;;;;;;;;;4987482;28;20046;-62
2023/08/17 05:03:26;;;;;;;19.90;9.35;;;;;;;;;;4987101;28;20405;-62
2023/08/17 05:05:53;;;;;;;21.75;9.60;;;;;;;;;;4988419;28;20034;-62
2023/08/17 05:08:21;;;;;;;19.10;9.45;;;;;;;;;;4986722;28;20618;-63
2023/08/17 05:10:48;;;;;;;19.08;10.10;;;;;;;;;;4988650;28;20045;-62
2023/08/17 05:13:15;;;;;;;15.75;9.13;;;;;;;;;;5002584;28;20033;-61
2023/08/17 05:15:42;;;;;;;18.98;9.60;;;;;;;;;;4986688;28;20084;-65
2023/08/17 05:18:08;;;;;;;16.63;9.25;;;;;;;;;;4988047;28;20153;-62
2023/08/17 05:20:35;;;;;;;22.50;9.18;;;;;;;;;;4987273;28;20070;-64
2023/08/17 05:23:02;;;;;;;18.42;9.73;;;;;;;;;;4988053;28;20044;-65
2023/08/17 05:25:29;;;;;;;17.00;9.55;;;;;;;;;;5001171;28;20425;-63
2023/08/17 05:27:56;;;;;;;18.25;9.80;;;;;;;;;;4987258;28;20076;-60
2023/08/17 05:30:22;;;;;;;24.50;9.80;;;;;;;;;;4986704;28;20044;-66
2023/08/17 05:32:49;;;;;;;21.52;10.07;;;;;;;;;;4986924;28;20053;-64
2023/08/17 05:35:15;;;;;;;24.00;9.75;;;;;;;;;;4985314;28;20053;-64
2023/08/17 05:37:42;;;;;;;21.70;10.30;;;;;;;;;;4986113;28;20065;-63
2023/08/17 05:40:09;;;;;;;18.27;9.35;;;;;;;;;;4987334;28;20046;-63
2023/08/17 05:42:35;;;;;;;23.80;9.60;;;;;;;;;;4986398;28;20040;-65
2023/08/17 05:45:02;;;;;;;16.88;9.43;;;;;;;;;;4985840;28;20049;-64
2023/08/17 05:47:28;;;;;;;13.02;8.65;;;;;;;;;;4987429;28;20061;-63
2023/08/17 05:49:55;;;;;;;17.55;9.23;;;;;;;;;;4987535;28;20096;-63
2023/08/17 05:52:22;;;;;;;18.27;9.60;;;;;;;;;;4987554;28;20046;-64
2023/08/17 05:54:48;;;;;;;16.15;9.10;;;;;;;;;;4986656;28;21418;-63
2023/08/17 05:57:15;;;;;;;15.45;8.43;;;;;;;;;;4986985;28;20037;-63
2023/08/17 05:59:42;;;;;;;15.75;8.90;;;;;;;;;;4986568;28;20081;-62
2023/08/17 06:02:08;;;;;;;15.15;9.18;;;;;;;;;;4987561;28;20104;-64
2023/08/17 06:04:35;;;;;;;19.50;8.40;;;;;;;;;;4985778;28;20844;-67
2023/08/17 06:07:02;;;;;;;17.42;8.20;;;;;;;;;;4987301;28;20538;-64
2023/08/17 06:09:28;;;;;;;17.58;8.88;;;;;;;;;;4987242;28;20038;-64
2023/08/17 06:11:55;;;;;;;17.20;8.85;;;;;;;;;;4987536;28;20174;-66
2023/08/17 06:14:22;;;;;;;15.32;8.20;;;;;;;;;;4985869;28;20049;-64
2023/08/17 06:16:48;;;;;;;19.15;8.95;;;;;;;;;;4966380;28;20031;-64
2023/08/17 06:19:15;;;;;;;15.18;8.68;;;;;;;;;;4973436;28;20134;-64
2023/08/17 06:21:42;;;;;;;16.42;9.25;;;;;;;;;;4974443;28;20571;-64
2023/08/17 06:24:08;;;;;;;19.13;8.30;;;;;;;;;;4975225;28;20039;-63
2023/08/17 06:26:35;;;;;;;20.70;9.32;;;;;;;;;;4973168;28;20081;-62
2023/08/17 06:29:02;;;;;;;20.05;9.52;;;;;;;;;;4974687;28;20395;-64
2023/08/17 06:31:28;;;;;;;19.70;9.35;;;;;;;;;;4988691;28;20045;-63
2023/08/17 06:33:55;;;;;;;23.02;9.23;;;;;;;;;;4974305;28;20042;-64
2023/08/17 06:36:22;;;;;;;21.40;10.15;;;;;;;;;;4973766;28;20046;-64
2023/08/17 06:38:48;;;;;;;17.02;9.88;;;;;;;;;;4968897;28;20097;-62
2023/08/17 06:41:15;;;;;;;20.10;10.15;;;;;;;;;;4974614;28;20140;-63
2023/08/17 06:43:42;;;;;;;19.63;9.80;;;;;;;;;;4973598;28;20447;-65
2023/08/17 06:46:08;;;;;;;14.95;9.50;;;;;;;;;;4974666;28;20507;-63
2023/08/17 06:48:35;;;;;;;20.10;9.65;;;;;;;;;;4976649;28;20419;-64
2023/08/17 06:51:04;;;;;;;16.73;9.90;;;;;;;;;;4978892;28;20042;-63
2023/08/17 06:53:31;;;;;;;19.95;9.82;;;;;;;;;;4977202;28;20034;-65
2023/08/17 06:55:57;;;;;;;17.45;9.65;;;;;;;;;;4977044;28;20033;-64
2023/08/17 06:58:24;;;;;;;19.40;10.23;;;;;;;;;;4976399;28;20038;-63
2023/08/17 07:00:51;;;;;;;27.15;10.55;;;;;;;;;;4978112;28;20117;-65
2023/08/17 07:03:17;;;;;;;20.65;9.95;;;;;;;;;;4977868;28;20498;-64
2023/08/17 07:05:44;;;;;;;22.23;10.02;;;;;;;;;;4973303;28;20049;-64
2023/08/17 07:08:10;;;;;;;19.83;10.38;;;;;;;;;;4991916;28;20062;-65
2023/08/17 07:10:37;;;;;;;23.10;10.65;;;;;;;;;;4977927;28;20035;-64
2023/08/17 07:13:04;;;;;;;23.77;10.40;;;;;;;;;;4993915;28;20084;-63
2023/08/17 07:15:31;;;;;;;23.67;10.98;;;;;;;;;;4976237;28;20042;-64
2023/08/17 07:17:58;;;;;;;29.25;10.70;;;;;;;;;;4976438;28;20199;-63
2023/08/17 07:20:25;;;;;;;20.52;10.82;;;;;;;;;;4977202;28;20045;-65
2023/08/17 07:22:51;;;;;;;24.05;10.57;;;;;;;;;;4976311;28;20438;-64
2023/08/17 07:25:18;;;;;;;21.33;10.50;;;;;;;;;;4977364;28;20832;-63
2023/08/17 07:27:44;;;;;;;22.80;10.93;;;;;;;;;;4976272;28;20054;-62
2023/08/17 07:30:11;;;;;;;23.13;10.73;;;;;;;;;;4977319;28;20561;-64
2023/08/17 07:32:38;;;;;;;17.95;10.40;;;;;;;;;;4976404;28;20046;-63
2023/08/17 07:35:05;;;;;;;17.83;10.32;;;;;;;;;;4976030;28;21378;-62
2023/08/17 07:37:34;;;;;;;18.52;10.98;;;;;;;;;;4976757;28;20049;-63
2023/08/17 07:40:03;;;;;;;19.80;11.35;;;;;;;;;;4978940;28;20863;-65
2023/08/17 07:42:30;;;;;;;23.02;11.00;;;;;;;;;;4978938;28;20050;-63
2023/08/17 07:44:56;;;;;;;17.67;10.55;;;;;;;;;;4978092;28;20039;-66
2023/08/17 07:47:23;;;;;;;20.25;10.95;;;;;;;;;;4977140;28;20057;-64
2023/08/17 07:49:50;;;;;;;26.52;11.20;;;;;;;;;;4979225;28;20047;-64
2023/08/17 07:52:16;;;;;;;21.30;11.45;;;;;;;;;;4977668;28;20046;-63
2023/08/17 07:54:43;;;;;;;20.30;10.82;;;;;;;;;;4976851;28;20038;-63
2023/08/17 07:57:10;;;;;;;18.83;10.75;;;;;;;;;;4978211;28;20784;-62
2023/08/17 07:59:37;;;;;;;24.50;11.35;;;;;;;;;;4978763;28;20046;-63
2023/08/17 08:02:03;;;;;;;23.05;10.98;;;;;;;;;;4978913;28;20125;-63
2023/08/17 08:04:30;;;;;;;19.60;10.65;;;;;;;;;;4993056;28;20030;-64
2023/08/17 08:07:16;;;;;;;22.00;10.88;;;;;;;;;;5014883;28;20144;-63
2023/08/17 08:09:43;;;;;;;21.63;10.63;;;;;;;;;;5014295;28;20041;-62
2023/08/17 08:12:09;;;;;;;22.65;11.50;;;;;;;;;;5014509;28;20064;-61
2023/08/17 08:14:36;;;;;;;23.10;11.27;;;;;;;;;;5013144;28;20461;-63
2023/08/17 08:17:03;;;;;;;20.60;11.00;;;;;;;;;;5011976;28;20052;-63
2023/08/17 08:19:29;;;;;;;24.25;10.63;;;;;;;;;;5013628;28;20510;-64
2023/08/17 08:21:56;;;;;;;23.60;11.20;;;;;;;;;;5014136;28;20163;-62
2023/08/17 08:24:23;;;;;;;22.40;10.60;;;;;;;;;;5005690;28;20034;-67
2023/08/17 08:26:50;;;;;;;18.73;11.02;;;;;;;;;;5012341;28;20136;-64
2023/08/17 08:29:17;;;;;;;18.65;10.75;;;;;;;;;;5013656;28;20469;-64
2023/08/17 08:31:44;;;;;;;21.23;10.30;;;;;;;;;;5010848;28;20092;-64
2023/08/17 08:34:10;;;;;;;20.98;10.98;;;;;;;;;;5013071;28;20045;-64
2023/08/17 08:36:37;;;;;;;18.92;10.82;;;;;;;;;;5011978;28;20111;-68
2023/08/17 08:39:04;;;;;;;20.10;10.38;;;;;;;;;;5013494;28;20044;-64
2023/08/17 08:41:31;;;;;;;20.85;10.63;;;;;;;;;;4996425;28;21751;-64
2023/08/17 08:43:58;;;;;;;21.15;10.50;;;;;;;;;;5007405;28;20042;-65
2023/08/17 08:46:27;;;;;;;20.35;10.65;;;;;;;;;;4974652;28;20050;-64
2023/08/17 08:48:55;;;;;;;16.08;10.05;;;;;;;;;;4977081;28;20057;-63
2023/08/17 08:51:26;;;;;;;23.15;10.40;;;;;;;;;;4976420;28;20044;-65
2023/08/17 08:53:55;;;;;;;19.35;10.45;;;;;;;;;;4975918;28;20134;-64
2023/08/17 08:56:24;;;;;;;21.15;10.77;;;;;;;;;;4975402;28;20103;-64
2023/08/17 08:58:51;;;;;;;23.67;10.98;;;;;;;;;;4975049;28;20034;-64
2023/08/17 09:01:18;;;;;;;21.05;10.75;;;;;;;;;;4976326;28;20057;-66
2023/08/17 09:03:46;;;;;;;19.75;10.77;;;;;;;;;;4975281;28;20792;-64
2023/08/17 09:06:13;;;;;;;19.17;10.65;;;;;;;;;;4973661;28;20050;-64
2023/08/17 09:08:41;;;;;;;17.98;10.63;;;;;;;;;;4975682;28;20107;-63
2023/08/17 09:11:07;;;;;;;21.65;10.75;;;;;;;;;;4975243;28;20714;-65
2023/08/17 09:13:34;;;;;;;21.30;10.18;;;;;;;;;;4990031;28;20085;-64
2023/08/17 09:16:01;;;;;;;21.33;10.80;;;;;;;;;;4974328;28;20130;-61
2023/08/17 09:18:28;;;;;;;16.95;10.52;;;;;;;;;;4973436;28;20062;-63
2023/08/17 09:20:55;;;;;;;18.00;10.48;;;;;;;;;;4976558;28;20069;-64
2023/08/17 09:23:22;;;;;;;23.50;10.57;;;;;;;;;;4975743;28;20073;-64
2023/08/17 09:25:51;;;;;;;22.75;10.18;;;;;;;;;;4974447;28;20038;-64
2023/08/17 09:28:19;;;;;;;17.98;10.45;;;;;;;;;;4980291;28;20505;-61
2023/08/17 09:30:52;;;;;;;19.33;10.05;;;;;;;;;;4974537;28;20046;-63
2023/08/17 09:33:19;;;;;;;20.67;11.50;;;;;;;;;;4974674;28;20137;-65
2023/08/17 09:35:46;;;;;;;19.17;10.38;;;;;;;;;;4975039;28;20046;-64
2023/08/17 09:38:15;;;;;;;23.05;10.23;;;;;;;;;;4973619;28;20503;-62
2023/08/17 09:40:41;;;;;;;23.55;10.43;;;;;;;;;;4974390;28;20038;-63
2023/08/17 09:43:09;;;;;;;18.85;10.40;;;;;;;;;;4974100;28;20412;-63
2023/08/17 09:45:39;;;;;;;22.23;10.88;;;;;;;;;;4973928;28;20391;-63
2023/08/17 09:48:06;;;;;;;22.92;10.55;;;;;;;;;;4973526;28;20520;-64
2023/08/17 09:50:33;;;;;;;24.55;10.65;;;;;;;;;;4973711;28;20046;-64
2023/08/17 09:53:00;;;;;;;20.83;10.65;;;;;;;;;;4974763;28;20108;-64
2023/08/17 09:55:26;;;;;;;23.45;11.43;;;;;;;;;;4973881;28;20078;-63
2023/08/17 09:57:53;;;;;;;21.15;10.75;;;;;;;;;;4974411;28;20062;-65
2023/08/17 10:00:20;;;;;;;18.42;11.20;;;;;;;;;;4975439;28;21590;-64
2023/08/17 10:02:53;;;;;;;21.55;10.60;;;;;;;;;;4973792;28;20514;-64
2023/08/17 10:05:20;;;;;;;25.73;11.15;;;;;;;;;;4975561;28;20054;-63
2023/08/17 10:07:49;;;;;;;19.95;10.68;;;;;;;;;;4974998;28;20614;-63
2023/08/17 10:10:17;;;;;;;22.83;11.40;;;;;;;;;;4974533;28;20047;-61
2023/08/17 10:12:46;;;;;;;21.80;10.57;;;;;;;;;;4974559;28;20214;-62
2023/08/17 10:15:16;;;;;;;25.27;11.73;;;;;;;;;;4972703;28;20042;-64
2023/08/17 10:17:53;;;;;;;24.80;11.43;;;;;;;;;;4990273;28;20084;-62
2023/08/17 10:20:20;;;;;;;19.27;10.82;;;;;;;;;;4978507;28;20048;-64
2023/08/17 10:22:52;;;;;;;21.85;11.32;;;;;;;;;;4982850;28;20044;-63
2023/08/17 10:25:20;;;;;;;25.73;11.05;;;;;;;;;;4982879;28;20054;-64
2023/08/17 10:27:46;;;;;;;23.95;11.43;;;;;;;;;;4979998;28;20057;-63
2023/08/17 10:30:13;;;;;;;19.75;11.60;;;;;;;;;;4983304;28;20042;-63
2023/08/17 10:32:44;;;;;;;20.15;10.98;;;;;;;;;;4980890;28;20031;-64
2023/08/17 10:35:11;;;;;;;19.50;11.63;;;;;;;;;;4985052;28;20054;-62
2023/08/17 10:37:38;;;;;;;19.05;11.10;;;;;;;;;;4997973;28;20117;-63
2023/08/17 10:40:06;;;;;;;21.88;11.20;;;;;;;;;;4983719;28;20052;-63
2023/08/17 10:42:32;;;;;;;21.77;11.60;;;;;;;;;;4978930;28;20042;-64
2023/08/17 10:45:01;;;;;;;21.75;11.02;;;;;;;;;;4979067;28;20053;-64
2023/08/17 10:47:29;;;;;;;28.85;12.02;;;;;;;;;;4975957;28;20053;-62
2023/08/17 10:50:09;;;;;;;19.77;11.02;;;;;;;;;;4976789;28;20053;-64
2023/08/17 10:52:40;;;;;;;26.95;11.63;;;;;;;;;;4977447;28;20153;-63
2023/08/17 10:55:08;;;;;;;21.88;11.55;;;;;;;;;;4982788;28;20038;-63
2023/08/17 10:57:37;;;;;;;20.40;11.13;;;;;;;;;;4977231;28;20042;-63
2023/08/17 11:00:27;;;;;;;22.02;11.25;;;;;;;;;;4993697;28;20030;-62
2023/08/17 11:03:01;;;;;;;23.60;10.98;;;;;;;;;;4994073;28;20037;-63
2023/08/17 11:05:44;;;;;;;18.98;11.18;;;;;;;;;;4992644;28;20053;-62
2023/08/17 11:08:10;;;;;;;;;;;;;;;;;;4992972;28;20053;-63
2023/08/17 11:10:38;;;;;;;21.02;10.15;;;;;;;;;;4992782;28;19921;-60
2023/08/17 11:13:04;;;;;;;26.20;10.77;;;;;;;;;;4993000;28;20462;-61
2023/08/17 11:15:44;;;;;;;21.42;11.20;;;;;;;;;;4974383;28;20077;-63
2023/08/17 11:18:12;;;;;;;18.58;11.27;;;;;;;;;;4973090;28;20041;-64
2023/08/17 11:20:39;;;;;;;21.23;11.23;;;;;;;;;;4991977;28;20356;-64
2023/08/17 11:23:07;;;;;;;19.50;11.13;;;;;;;;;;4994318;28;20061;-63
2023/08/17 11:25:36;;;;;;;20.83;11.40;;;;;;;;;;4992393;28;20750;-63
2023/08/17 11:28:03;;;;;;;20.92;11.82;;;;;;;;;;4992113;28;20609;-62
2023/08/17 11:30:30;;;;;;;25.30;11.60;;;;;;;;;;4992323;28;20037;-62
2023/08/17 11:32:57;;;;;;;21.80;10.88;;;;;;;;;;4990377;28;20081;-62
2023/08/17 11:35:45;;;;;;;22.75;11.07;;;;;;;;;;4985780;28;20154;-62
2023/08/17 11:38:12;;;;;;;22.27;10.90;;;;;;;;;;5000056;28;20542;-61
2023/08/17 11:40:38;;;;;;;24.45;10.70;;;;;;;;;;5003236;28;20046;-64
2023/08/17 11:43:05;;;;;;;20.05;11.60;;;;;;;;;;5011777;28;20117;-64
2023/08/17 11:45:33;;;;;;;20.50;11.02;;;;;;;;;;5011454;28;20053;-61
2023/08/17 11:48:00;;;;;;;24.45;12.35;;;;;;;;;;5012349;28;20048;-63
2023/08/17 11:50:27;;;;;;;19.35;10.82;;;;;;;;;;5012583;28;20130;-62
2023/08/17 11:52:53;;;;;;;23.23;11.93;;;;;;;;;;5013272;28;20037;-61
2023/08/17 11:55:20;;;;;;;22.73;11.20;;;;;;;;;;5012859;28;21809;-62
2023/08/17 11:57:47;;;;;;;26.08;11.60;;;;;;;;;;5011531;28;20040;-64
2023/08/17 12:00:24;;;;;;;26.17;11.75;;;;;;;;;;5012026;28;20041;-61
2023/08/17 12:02:51;;;;;;;23.90;10.98;;;;;;;;;;5012366;28;20149;-58
2023/08/17 12:05:24;;;;;;;23.92;11.93;;;;;;;;;;5012933;28;20081;-59
2023/08/17 12:07:53;;;;;;;25.80;12.52;;;;;;;;;;5010954;28;20053;-61
2023/08/17 12:10:22;;;;;;;20.60;11.27;;;;;;;;;;5013290;28;20496;-60
2023/08/17 12:12:49;;;;;;;20.60;11.50;;;;;;;;;;5006638;28;20096;-58
2023/08/17 12:15:20;;;;;;;26.85;12.60;;;;;;;;;;4996417;28;21873;-60
2023/08/17 12:17:47;;;;;;;21.40;12.27;;;;;;;;;;4993778;28;20030;-59
2023/08/17 12:20:21;;;;;;;23.50;12.80;;;;;;;;;;4995243;28;20379;-59
2023/08/17 12:22:48;;;;;;;34.28;15.52;;;;;;;;;;4993706;28;20136;-61
2023/08/17 12:25:15;;;;;;;31.35;13.75;;;;;;;;;;4994590;28;20049;-58
2023/08/17 12:27:43;;;;;;;29.13;13.95;;;;;;;;;;4992052;28;20134;-57
2023/08/17 12:30:15;;;;;;;26.10;13.77;;;;;;;;;;4992974;28;20053;-59
2023/08/17 12:32:41;;;;;;;25.23;13.50;;;;;;;;;;4994065;28;20092;-60
2023/08/17 12:35:08;;;;;;;28.92;14.43;;;;;;;;;;4994477;28;20072;-60
2023/08/17 12:37:35;;;;;;;24.27;13.10;;;;;;;;;;4993626;28;20046;-60
2023/08/17 12:40:02;;;;;;;26.48;14.07;;;;;;;;;;4995204;28;21720;-61
2023/08/17 12:42:28;;;;;;;27.08;13.15;;;;;;;;;;4994405;28;20049;-60
2023/08/17 12:44:55;;;;;;;23.90;13.85;;;;;;;;;;4995905;28;20069;-61
2023/08/17 12:47:22;;;;;;;32.15;13.70;;;;;;;;;;4994360;28;20140;-61
2023/08/17 12:49:48;;;;;;;27.55;13.73;;;;;;;;;;4995498;28;20038;-59
2023/08/17 12:52:15;;;;;;;30.25;13.55;;;;;;;;;;4996730;28;20046;-61
2023/08/17 12:54:41;;;;;;;24.30;13.60;;;;;;;;;;4995542;28;20122;-59
2023/08/17 12:57:08;;;;;;;27.67;14.98;;;;;;;;;;4994387;28;20351;-61
2023/08/17 12:59:35;;;;;;;25.58;14.10;;;;;;;;;;4994428;28;20501;-61
2023/08/17 13:02:01;;;;;;;28.77;14.25;;;;;;;;;;4994374;28;20483;-61
2023/08/17 13:04:28;;;;;;;32.97;14.52;;;;;;;;;;4992779;28;20037;-63
2023/08/17 13:06:55;;;;;;;33.60;14.45;;;;;;;;;;4991876;28;20826;-60
2023/08/17 13:09:22;;;;;;;44.70;15.45;;;;;;;;;;4993579;28;20046;-62
2023/08/17 13:11:48;;;;;;;34.00;15.43;;;;;;;;;;5008909;28;20042;-60
2023/08/17 13:14:16;;;;;;;31.38;15.00;;;;;;;;;;4994107;28;20111;-61
2023/08/17 13:16:42;;;;;;;29.38;15.07;;;;;;;;;;4992883;28;20892;-62
2023/08/17 13:19:09;;;;;;;38.10;15.50;;;;;;;;;;5008534;28;20540;-62
2023/08/17 13:21:36;;;;;;;37.50;14.95;;;;;;;;;;4993993;28;20135;-62
2023/08/17 13:24:03;;;;;;;40.08;15.88;;;;;;;;;;4992129;28;20046;-59
2023/08/17 13:26:30;;;;;;;28.00;14.43;;;;;;;;;;4993868;28;20406;-59
2023/08/17 13:28:57;;;;;;;27.35;14.57;;;;;;;;;;4994357;28;20070;-60
2023/08/17 13:31:24;;;;;;;29.75;14.82;;;;;;;;;;5008330;28;20034;-61
2023/08/17 13:33:50;;;;;;;29.38;15.07;;;;;;;;;;4993928;28;20123;-63
2023/08/17 13:36:17;;;;;;;28.10;14.93;;;;;;;;;;4994869;28;20059;-62
2023/08/17 13:38:45;;;;;;;30.90;15.80;;;;;;;;;;4992807;28;20131;-60
2023/08/17 13:41:11;;;;;;;30.13;15.77;;;;;;;;;;4994060;28;20065;-61
2023/08/17 13:43:38;;;;;;;31.98;16.95;;;;;;;;;;5007191;28;20042;-64
2023/08/17 13:46:05;;;;;;;33.45;17.48;;;;;;;;;;4993885;28;20037;-60
2023/08/17 13:48:32;;;;;;;34.35;18.50;;;;;;;;;;4990577;28;20227;-61
2023/08/17 13:50:58;;;;;;;37.65;20.05;;;;;;;;;;4993158;28;20038;-62
2023/08/17 13:53:25;;;;;;;39.33;20.77;;;;;;;;;;4993276;28;20046;-60
2023/08/17 13:55:51;;;;;;;46.30;20.08;;;;;;;;;;4992463;28;20069;-62
2023/08/17 13:58:18;;;;;;;36.38;20.33;;;;;;;;;;5005312;28;20042;-61
2023/08/17 14:00:45;;;;;;;41.92;19.98;;;;;;;;;;4992063;28;20112;-63
2023/08/17 14:03:11;;;;;;;47.88;21.83;;;;;;;;;;4993618;28;20042;-60
2023/08/17 14:05:38;;;;;;;40.28;21.02;;;;;;;;;;4993045;28;20576;-60
2023/08/17 14:08:06;;;;;;;39.33;20.67;;;;;;;;;;4992678;28;20045;-60
2023/08/17 14:10:35;;;;;;;36.55;20.45;;;;;;;;;;4991856;28;20129;-62
2023/08/17 14:13:02;;;;;;;54.72;22.50;;;;;;;;;;4994910;28;20453;-59
2023/08/17 14:15:29;;;;;;;38.17;21.80;;;;;;;;;;4995109;28;20096;-60
2023/08/17 14:17:55;;;;;;;39.03;22.25;;;;;;;;;;4993336;28;20038;-62
2023/08/17 14:20:22;;;;;;;44.17;23.52;;;;;;;;;;4996450;28;20034;-60
2023/08/17 14:22:49;;;;;;;40.72;23.02;;;;;;;;;;4996545;28;20125;-62